Aérodrome :
LOGIN :

S'inscrire | Disclaimer

   EN    FR    IT 

 










Légende :    VFR   VFR Marginal   IFR   IFR Intensif   IFR Très Intensif
Visi : 
Plafond : 
>= 8 km
>= 3000ft
5 à 8 km
1000 à 3000 ft
1500m à 5 km
500 à 1000 ft
800 à 1500m
200 à 500 ft
< 800m
< 200 ft
Symboles :   Orages  Brouillard  Fortes neiges  Fortes précipitations  Vent > 20 kt
SIGMETs :   Divers  Orages  Givrage  Turbulence  Onde Orograph.  Cendres Volcan.







- Altitude de l'aérodrome : 913 ft
- Voir les cartes d'approche


LFSX - Luxeuil

METARs EXPIRÉS :
  • 241430Z AUTO 26009KT 230V290 CAVOK 28/12 Q1017 NOSIG
  • 241400Z AUTO 27004KT 190V310 CAVOK 26/12 Q1017 NOSIG
  • 241330Z AUTO 24009KT 200V290 CAVOK 27/12 Q1018 NOSIG
  • 241300Z AUTO 21007KT 170V260 CAVOK 26/13 Q1018 NOSIG
  • 241230Z AUTO 23008KT 180V300 9999 SCT044 BKN052 25/13 Q1019 NOSIG
  • 241200Z AUTO 25005KT 200V320 9999 FEW044 OVC052 25/13 Q1019 NOSIG

Prévision TAF périmée.
Pas de NOTAMs connus pour ce terrain.
1 SIGMET publié pour la FIR Reims (LFEE) :
 
Turbulence forte
LFEE SIGMET 1 VALID 250000/250400 LFPW
LFEE REIMS FIR/UIR SEV TURB FCST WI N4645 E00445 - N4730 E00415 - N4830 E00530 - N4900 E00445 - N4930 E00600 - N4915 E00715 - N4645 E00530 FL300/370 MOV SE 15KT NC=



MET'MAP, la Météo Aéronautique d'un coup d'oeil ! - Copyright ORBIFLY Décembre 2007 - Disclaimer

ORBIFLY MET'MAP TEAM :

Programmation & Développement : Alexandra Zaïnal
Conception & Développement : Baudouin d'Aumeries
Co-Programmation & Développement : Marc-Olivier Méhu
Soutien technique & logistique : Manuel Goepfert

Contact : metmap@orbifly.com




SOURCES & CREDITS :

   NOAA